sensor_id;sensor_type;location;lat;lon;timestamp;P1;durP1;ratioP1;P2;durP2;ratioP2
9884;SDS011;4981;50.966;4.842;2023-06-01T00:00:55;9.88;;;5.20;;
9884;SDS011;4981;50.966;4.842;2023-06-01T00:03:23;10.65;;;5.65;;
9884;SDS011;4981;50.966;4.842;2023-06-01T00:05:51;8.45;;;4.70;;
9884;SDS011;4981;50.966;4.842;2023-06-01T00:08:18;8.23;;;4.88;;
9884;SDS011;4981;50.966;4.842;2023-06-01T00:10:47;10.05;;;4.88;;
9884;SDS011;4981;50.966;4.842;2023-06-01T00:13:14;14.45;;;5.90;;
9884;SDS011;4981;50.966;4.842;2023-06-01T00:15:43;9.23;;;5.13;;
9884;SDS011;4981;50.966;4.842;2023-06-01T00:18:10;8.43;;;5.10;;
9884;SDS011;4981;50.966;4.842;2023-06-01T00:20:40;8.98;;;4.95;;
9884;SDS011;4981;50.966;4.842;2023-06-01T00:23:08;8.13;;;5.03;;
9884;SDS011;4981;50.966;4.842;2023-06-01T00:25:35;9.23;;;5.13;;
9884;SDS011;4981;50.966;4.842;2023-06-01T00:28:02;9.52;;;4.75;;
9884;SDS011;4981;50.966;4.842;2023-06-01T00:30:29;10.38;;;5.18;;
9884;SDS011;4981;50.966;4.842;2023-06-01T00:32:58;10.38;;;5.22;;
9884;SDS011;4981;50.966;4.842;2023-06-01T00:35:25;7.53;;;4.85;;
9884;SDS011;4981;50.966;4.842;2023-06-01T00:37:51;9.45;;;5.18;;
9884;SDS011;4981;50.966;4.842;2023-06-01T00:40:19;9.65;;;4.90;;
9884;SDS011;4981;50.966;4.842;2023-06-01T00:42:46;6.50;;;4.75;;
9884;SDS011;4981;50.966;4.842;2023-06-01T00:45:13;7.25;;;4.65;;
9884;SDS011;4981;50.966;4.842;2023-06-01T00:47:40;8.50;;;5.05;;
9884;SDS011;4981;50.966;4.842;2023-06-01T00:50:10;6.90;;;4.68;;
9884;SDS011;4981;50.966;4.842;2023-06-01T00:52:37;7.50;;;4.82;;
9884;SDS011;4981;50.966;4.842;2023-06-01T00:55:05;9.52;;;4.78;;
9884;SDS011;4981;50.966;4.842;2023-06-01T00:57:33;9.35;;;4.53;;
9884;SDS011;4981;50.966;4.842;2023-06-01T01:00:01;9.05;;;4.82;;
9884;SDS011;4981;50.966;4.842;2023-06-01T01:02:34;4.47;;;3.30;;
9884;SDS011;4981;50.966;4.842;2023-06-01T01:05:05;11.25;;;4.95;;
9884;SDS011;4981;50.966;4.842;2023-06-01T01:07:38;8.10;;;4.93;;
9884;SDS011;4981;50.966;4.842;2023-06-01T01:10:18;8.90;;;4.90;;
9884;SDS011;4981;50.966;4.842;2023-06-01T01:12:53;9.05;;;5.10;;
9884;SDS011;4981;50.966;4.842;2023-06-01T01:15:26;10.35;;;5.30;;
9884;SDS011;4981;50.966;4.842;2023-06-01T01:18:01;12.75;;;5.28;;
9884;SDS011;4981;50.966;4.842;2023-06-01T01:20:34;10.73;;;5.30;;
9884;SDS011;4981;50.966;4.842;2023-06-01T01:26:03;10.07;;;5.57;;
9884;SDS011;4981;50.966;4.842;2023-06-01T01:28:43;8.70;;;5.70;;
9884;SDS011;4981;50.966;4.842;2023-06-01T01:31:15;8.93;;;5.50;;
9884;SDS011;4981;50.966;4.842;2023-06-01T01:33:45;6.78;;;5.50;;
9884;SDS011;4981;50.966;4.842;2023-06-01T01:36:12;11.90;;;5.50;;
9884;SDS011;4981;50.966;4.842;2023-06-01T01:38:39;8.85;;;5.85;;
9884;SDS011;4981;50.966;4.842;2023-06-01T01:41:06;10.05;;;5.70;;
9884;SDS011;4981;50.966;4.842;2023-06-01T01:43:33;10.02;;;5.65;;
9884;SDS011;4981;50.966;4.842;2023-06-01T01:46:06;13.40;;;5.72;;
9884;SDS011;4981;50.966;4.842;2023-06-01T01:48:41;6.77;;;6.00;;
9884;SDS011;4981;50.966;4.842;2023-06-01T01:51:17;6.68;;;5.43;;
9884;SDS011;4981;50.966;4.842;2023-06-01T01:53:47;11.20;;;6.20;;
9884;SDS011;4981;50.966;4.842;2023-06-01T01:56:16;9.93;;;5.82;;
9884;SDS011;4981;50.966;4.842;2023-06-01T01:58:45;9.13;;;5.65;;
9884;SDS011;4981;50.966;4.842;2023-06-01T02:01:16;11.38;;;6.20;;
9884;SDS011;4981;50.966;4.842;2023-06-01T02:03:43;10.07;;;6.38;;
9884;SDS011;4981;50.966;4.842;2023-06-01T02:06:10;10.73;;;6.32;;
9884;SDS011;4981;50.966;4.842;2023-06-01T02:08:37;9.45;;;6.07;;
9884;SDS011;4981;50.966;4.842;2023-06-01T02:11:04;7.32;;;6.22;;
9884;SDS011;4981;50.966;4.842;2023-06-01T02:13:31;9.13;;;6.65;;
9884;SDS011;4981;50.966;4.842;2023-06-01T02:15:58;6.97;;;6.28;;
9884;SDS011;4981;50.966;4.842;2023-06-01T02:18:27;10.15;;;6.53;;
9884;SDS011;4981;50.966;4.842;2023-06-01T02:20:54;7.60;;;6.35;;
9884;SDS011;4981;50.966;4.842;2023-06-01T02:23:22;9.98;;;7.45;;
9884;SDS011;4981;50.966;4.842;2023-06-01T02:25:49;11.10;;;6.53;;
9884;SDS011;4981;50.966;4.842;2023-06-01T02:28:16;11.38;;;6.65;;
9884;SDS011;4981;50.966;4.842;2023-06-01T02:30:44;10.30;;;6.80;;
9884;SDS011;4981;50.966;4.842;2023-06-01T02:33:11;7.88;;;6.65;;
9884;SDS011;4981;50.966;4.842;2023-06-01T02:35:40;9.70;;;6.38;;
9884;SDS011;4981;50.966;4.842;2023-06-01T02:38:07;10.50;;;6.65;;
9884;SDS011;4981;50.966;4.842;2023-06-01T02:40:34;11.20;;;7.32;;
9884;SDS011;4981;50.966;4.842;2023-06-01T02:43:01;11.88;;;6.85;;
9884;SDS011;4981;50.966;4.842;2023-06-01T02:45:27;9.88;;;6.80;;
9884;SDS011;4981;50.966;4.842;2023-06-01T02:47:54;9.95;;;7.05;;
9884;SDS011;4981;50.966;4.842;2023-06-01T02:50:21;10.55;;;7.50;;
9884;SDS011;4981;50.966;4.842;2023-06-01T02:52:50;13.13;;;7.93;;
9884;SDS011;4981;50.966;4.842;2023-06-01T02:55:17;10.63;;;7.80;;
9884;SDS011;4981;50.966;4.842;2023-06-01T02:57:44;12.47;;;8.60;;
9884;SDS011;4981;50.966;4.842;2023-06-01T03:00:11;10.27;;;8.13;;
9884;SDS011;4981;50.966;4.842;2023-06-01T03:02:42;12.60;;;8.47;;
9884;SDS011;4981;50.966;4.842;2023-06-01T03:05:09;6.90;;;5.28;;
9884;SDS011;4981;50.966;4.842;2023-06-01T03:07:38;13.00;;;8.57;;
9884;SDS011;4981;50.966;4.842;2023-06-01T03:10:07;15.23;;;8.83;;
9884;SDS011;4981;50.966;4.842;2023-06-01T03:12:34;11.90;;;8.07;;
9884;SDS011;4981;50.966;4.842;2023-06-01T03:15:01;13.55;;;8.15;;
9884;SDS011;4981;50.966;4.842;2023-06-01T03:17:29;12.93;;;9.00;;
9884;SDS011;4981;50.966;4.842;2023-06-01T03:19:56;10.97;;;9.00;;
9884;SDS011;4981;50.966;4.842;2023-06-01T03:22:23;9.90;;;8.90;;
9884;SDS011;4981;50.966;4.842;2023-06-01T03:24:51;13.70;;;9.47;;
9884;SDS011;4981;50.966;4.842;2023-06-01T03:27:21;12.20;;;9.47;;
9884;SDS011;4981;50.966;4.842;2023-06-01T03:29:48;15.73;;;10.07;;
9884;SDS011;4981;50.966;4.842;2023-06-01T03:32:15;11.00;;;9.17;;
9884;SDS011;4981;50.966;4.842;2023-06-01T03:34:42;12.17;;;9.13;;
9884;SDS011;4981;50.966;4.842;2023-06-01T03:37:10;13.95;;;9.60;;
9884;SDS011;4981;50.966;4.842;2023-06-01T03:39:37;13.93;;;9.70;;
9884;SDS011;4981;50.966;4.842;2023-06-01T03:42:04;9.93;;;6.50;;
9884;SDS011;4981;50.966;4.842;2023-06-01T03:44:33;15.37;;;10.30;;
9884;SDS011;4981;50.966;4.842;2023-06-01T03:47:00;14.07;;;10.35;;
9884;SDS011;4981;50.966;4.842;2023-06-01T03:49:27;12.57;;;10.15;;
9884;SDS011;4981;50.966;4.842;2023-06-01T03:51:55;14.57;;;10.70;;
9884;SDS011;4981;50.966;4.842;2023-06-01T03:54:22;17.73;;;10.70;;
9884;SDS011;4981;50.966;4.842;2023-06-01T03:56:49;16.13;;;11.10;;
9884;SDS011;4981;50.966;4.842;2023-06-01T03:59:16;15.83;;;10.20;;
9884;SDS011;4981;50.966;4.842;2023-06-01T04:01:44;15.93;;;10.53;;
9884;SDS011;4981;50.966;4.842;2023-06-01T04:04:13;12.90;;;10.20;;
9884;SDS011;4981;50.966;4.842;2023-06-01T04:06:41;16.87;;;11.13;;
9884;SDS011;4981;50.966;4.842;2023-06-01T04:09:10;13.73;;;10.87;;
9884;SDS011;4981;50.966;4.842;2023-06-01T04:11:39;14.37;;;10.03;;
9884;SDS011;4981;50.966;4.842;2023-06-01T04:14:06;16.87;;;11.57;;
9884;SDS011;4981;50.966;4.842;2023-06-01T04:16:33;18.67;;;10.83;;
9884;SDS011;4981;50.966;4.842;2023-06-01T04:19:02;15.83;;;10.87;;
9884;SDS011;4981;50.966;4.842;2023-06-01T04:21:29;13.60;;;10.30;;
9884;SDS011;4981;50.966;4.842;2023-06-01T04:23:57;17.27;;;12.10;;
9884;SDS011;4981;50.966;4.842;2023-06-01T04:26:24;6.50;;;5.67;;
9884;SDS011;4981;50.966;4.842;2023-06-01T04:28:52;20.30;;;11.43;;
9884;SDS011;4981;50.966;4.842;2023-06-01T04:31:22;16.00;;;11.20;;
9884;SDS011;4981;50.966;4.842;2023-06-01T04:33:49;13.73;;;9.03;;
9884;SDS011;4981;50.966;4.842;2023-06-01T04:36:20;13.67;;;10.60;;
9884;SDS011;4981;50.966;4.842;2023-06-01T04:38:48;15.50;;;12.03;;
9884;SDS011;4981;50.966;4.842;2023-06-01T04:41:18;13.33;;;11.27;;
9884;SDS011;4981;50.966;4.842;2023-06-01T04:43:46;14.37;;;11.13;;
9884;SDS011;4981;50.966;4.842;2023-06-01T04:46:16;17.07;;;11.43;;
9884;SDS011;4981;50.966;4.842;2023-06-01T04:48:45;17.30;;;12.77;;
9884;SDS011;4981;50.966;4.842;2023-06-01T04:51:12;17.43;;;11.93;;
9884;SDS011;4981;50.966;4.842;2023-06-01T04:53:44;16.77;;;13.07;;
9884;SDS011;4981;50.966;4.842;2023-06-01T04:56:14;14.47;;;11.30;;
9884;SDS011;4981;50.966;4.842;2023-06-01T04:58:43;8.10;;;5.87;;
9884;SDS011;4981;50.966;4.842;2023-06-01T05:01:12;18.60;;;12.67;;
9884;SDS011;4981;50.966;4.842;2023-06-01T05:03:40;9.33;;;6.50;;
9884;SDS011;4981;50.966;4.842;2023-06-01T05:06:09;18.33;;;13.07;;
9884;SDS011;4981;50.966;4.842;2023-06-01T05:08:37;18.47;;;13.83;;
9884;SDS011;4981;50.966;4.842;2023-06-01T05:11:06;19.23;;;13.87;;
9884;SDS011;4981;50.966;4.842;2023-06-01T05:13:34;16.93;;;13.10;;
9884;SDS011;4981;50.966;4.842;2023-06-01T05:16:02;19.17;;;12.53;;
9884;SDS011;4981;50.966;4.842;2023-06-01T05:18:29;19.67;;;13.40;;
9884;SDS011;4981;50.966;4.842;2023-06-01T05:20:57;18.43;;;15.00;;
9884;SDS011;4981;50.966;4.842;2023-06-01T05:23:24;20.53;;;14.87;;
9884;SDS011;4981;50.966;4.842;2023-06-01T05:25:52;17.00;;;14.23;;
9884;SDS011;4981;50.966;4.842;2023-06-01T05:28:28;17.05;;;13.65;;
9884;SDS011;4981;50.966;4.842;2023-06-01T05:30:55;14.47;;;12.93;;
9884;SDS011;4981;50.966;4.842;2023-06-01T05:33:22;19.83;;;13.73;;
9884;SDS011;4981;50.966;4.842;2023-06-01T05:35:49;17.02;;;11.40;;
9884;SDS011;4981;50.966;4.842;2023-06-01T05:38:16;21.23;;;14.50;;
9884;SDS011;4981;50.966;4.842;2023-06-01T05:40:44;15.63;;;14.00;;
9884;SDS011;4981;50.966;4.842;2023-06-01T05:43:11;11.80;;;9.20;;
9884;SDS011;4981;50.966;4.842;2023-06-01T05:45:39;14.85;;;12.20;;
9884;SDS011;4981;50.966;4.842;2023-06-01T05:48:06;18.05;;;13.35;;
9884;SDS011;4981;50.966;4.842;2023-06-01T05:50:34;6.57;;;5.90;;
9884;SDS011;4981;50.966;4.842;2023-06-01T05:53:01;16.55;;;13.00;;
9884;SDS011;4981;50.966;4.842;2023-06-01T05:55:27;17.48;;;12.73;;
9884;SDS011;4981;50.966;4.842;2023-06-01T05:57:54;14.57;;;13.02;;
9884;SDS011;4981;50.966;4.842;2023-06-01T06:00:21;12.83;;;9.37;;
9884;SDS011;4981;50.966;4.842;2023-06-01T06:02:50;17.73;;;10.98;;
9884;SDS011;4981;50.966;4.842;2023-06-01T06:05:17;15.27;;;11.88;;
9884;SDS011;4981;50.966;4.842;2023-06-01T06:07:44;16.60;;;13.70;;
9884;SDS011;4981;50.966;4.842;2023-06-01T06:10:11;20.07;;;14.43;;
9884;SDS011;4981;50.966;4.842;2023-06-01T06:12:39;19.43;;;13.53;;
9884;SDS011;4981;50.966;4.842;2023-06-01T06:15:06;19.30;;;14.30;;
9884;SDS011;4981;50.966;4.842;2023-06-01T06:17:34;17.17;;;12.57;;
9884;SDS011;4981;50.966;4.842;2023-06-01T06:20:04;21.03;;;14.57;;
9884;SDS011;4981;50.966;4.842;2023-06-01T06:22:33;17.87;;;14.23;;
9884;SDS011;4981;50.966;4.842;2023-06-01T06:25:00;17.90;;;13.60;;
9884;SDS011;4981;50.966;4.842;2023-06-01T06:27:26;17.27;;;15.13;;
9884;SDS011;4981;50.966;4.842;2023-06-01T06:29:54;18.37;;;14.47;;
9884;SDS011;4981;50.966;4.842;2023-06-01T06:32:21;20.53;;;14.47;;
9884;SDS011;4981;50.966;4.842;2023-06-01T06:34:48;19.70;;;14.80;;
9884;SDS011;4981;50.966;4.842;2023-06-01T06:37:16;18.63;;;14.40;;
9884;SDS011;4981;50.966;4.842;2023-06-01T06:39:43;18.73;;;13.43;;
9884;SDS011;4981;50.966;4.842;2023-06-01T06:42:10;16.73;;;12.83;;
9884;SDS011;4981;50.966;4.842;2023-06-01T06:44:38;16.47;;;13.10;;
9884;SDS011;4981;50.966;4.842;2023-06-01T06:47:05;16.70;;;12.23;;
9884;SDS011;4981;50.966;4.842;2023-06-01T06:49:32;16.70;;;12.27;;
9884;SDS011;4981;50.966;4.842;2023-06-01T06:51:59;16.70;;;12.20;;
9884;SDS011;4981;50.966;4.842;2023-06-01T06:54:27;16.93;;;12.23;;
9884;SDS011;4981;50.966;4.842;2023-06-01T06:56:54;15.60;;;10.60;;
9884;SDS011;4981;50.966;4.842;2023-06-01T06:59:21;15.77;;;11.90;;
9884;SDS011;4981;50.966;4.842;2023-06-01T07:01:48;16.93;;;12.23;;
9884;SDS011;4981;50.966;4.842;2023-06-01T07:04:15;17.23;;;12.10;;
9884;SDS011;4981;50.966;4.842;2023-06-01T07:06:42;15.53;;;12.70;;
9884;SDS011;4981;50.966;4.842;2023-06-01T07:09:09;16.63;;;12.50;;
9884;SDS011;4981;50.966;4.842;2023-06-01T07:11:39;14.57;;;11.97;;
9884;SDS011;4981;50.966;4.842;2023-06-01T07:14:10;17.70;;;11.50;;
9884;SDS011;4981;50.966;4.842;2023-06-01T07:16:37;15.90;;;11.73;;
9884;SDS011;4981;50.966;4.842;2023-06-01T07:19:04;14.87;;;11.43;;
9884;SDS011;4981;50.966;4.842;2023-06-01T07:21:31;16.17;;;10.50;;
9884;SDS011;4981;50.966;4.842;2023-06-01T07:23:59;13.93;;;9.87;;
9884;SDS011;4981;50.966;4.842;2023-06-01T07:26:26;14.50;;;10.97;;
9884;SDS011;4981;50.966;4.842;2023-06-01T07:28:56;13.90;;;11.13;;
9884;SDS011;4981;50.966;4.842;2023-06-01T07:31:25;16.87;;;10.57;;
9884;SDS011;4981;50.966;4.842;2023-06-01T07:33:52;14.33;;;10.33;;
9884;SDS011;4981;50.966;4.842;2023-06-01T07:36:20;14.47;;;10.73;;
9884;SDS011;4981;50.966;4.842;2023-06-01T07:38:48;12.37;;;10.80;;
9884;SDS011;4981;50.966;4.842;2023-06-01T07:41:15;12.93;;;8.30;;
9884;SDS011;4981;50.966;4.842;2023-06-01T07:43:42;13.20;;;9.93;;
9884;SDS011;4981;50.966;4.842;2023-06-01T07:46:11;12.50;;;9.43;;
9884;SDS011;4981;50.966;4.842;2023-06-01T07:48:38;12.07;;;9.60;;
9884;SDS011;4981;50.966;4.842;2023-06-01T07:51:05;18.48;;;11.15;;
9884;SDS011;4981;50.966;4.842;2023-06-01T07:53:32;15.40;;;9.93;;
9884;SDS011;4981;50.966;4.842;2023-06-01T07:55:59;7.20;;;6.47;;
9884;SDS011;4981;50.966;4.842;2023-06-01T07:58:26;10.30;;;8.43;;
9884;SDS011;4981;50.966;4.842;2023-06-01T08:00:54;13.30;;;10.00;;
9884;SDS011;4981;50.966;4.842;2023-06-01T08:03:23;13.07;;;10.90;;
9884;SDS011;4981;50.966;4.842;2023-06-01T08:05:51;14.82;;;10.80;;
9884;SDS011;4981;50.966;4.842;2023-06-01T08:08:24;13.67;;;10.87;;
9884;SDS011;4981;50.966;4.842;2023-06-01T08:10:51;16.03;;;10.97;;
9884;SDS011;4981;50.966;4.842;2023-06-01T08:13:18;14.13;;;10.30;;
9884;SDS011;4981;50.966;4.842;2023-06-01T08:15:45;15.68;;;10.60;;
9884;SDS011;4981;50.966;4.842;2023-06-01T08:18:13;16.53;;;11.20;;
9884;SDS011;4981;50.966;4.842;2023-06-01T08:20:41;18.83;;;10.83;;
9884;SDS011;4981;50.966;4.842;2023-06-01T08:23:09;13.87;;;10.67;;
9884;SDS011;4981;50.966;4.842;2023-06-01T08:25:36;5.03;;;4.10;;
9884;SDS011;4981;50.966;4.842;2023-06-01T08:28:03;7.40;;;6.07;;
9884;SDS011;4981;50.966;4.842;2023-06-01T08:30:30;12.77;;;8.70;;
9884;SDS011;4981;50.966;4.842;2023-06-01T08:32:57;8.77;;;7.33;;
9884;SDS011;4981;50.966;4.842;2023-06-01T08:35:24;11.67;;;9.60;;
9884;SDS011;4981;50.966;4.842;2023-06-01T08:37:53;13.30;;;8.70;;
9884;SDS011;4981;50.966;4.842;2023-06-01T08:40:20;11.32;;;8.20;;
9884;SDS011;4981;50.966;4.842;2023-06-01T08:42:49;12.75;;;8.18;;
9884;SDS011;4981;50.966;4.842;2023-06-01T08:45:23;14.55;;;9.73;;
9884;SDS011;4981;50.966;4.842;2023-06-01T08:47:52;13.75;;;9.73;;
9884;SDS011;4981;50.966;4.842;2023-06-01T08:50:20;16.02;;;9.20;;
9884;SDS011;4981;50.966;4.842;2023-06-01T08:52:47;12.63;;;10.63;;
9884;SDS011;4981;50.966;4.842;2023-06-01T08:55:17;13.45;;;10.55;;
9884;SDS011;4981;50.966;4.842;2023-06-01T08:57:44;18.37;;;10.90;;
9884;SDS011;4981;50.966;4.842;2023-06-01T09:00:11;13.70;;;10.23;;
9884;SDS011;4981;50.966;4.842;2023-06-01T09:02:39;13.50;;;9.80;;
9884;SDS011;4981;50.966;4.842;2023-06-01T09:05:08;5.53;;;4.87;;
9884;SDS011;4981;50.966;4.842;2023-06-01T09:07:36;13.30;;;7.28;;
9884;SDS011;4981;50.966;4.842;2023-06-01T09:10:04;11.63;;;8.77;;
9884;SDS011;4981;50.966;4.842;2023-06-01T09:12:33;6.15;;;4.22;;
9884;SDS011;4981;50.966;4.842;2023-06-01T09:15:07;16.20;;;9.50;;
9884;SDS011;4981;50.966;4.842;2023-06-01T09:17:36;13.63;;;9.85;;
9884;SDS011;4981;50.966;4.842;2023-06-01T09:20:03;14.52;;;10.38;;
9884;SDS011;4981;50.966;4.842;2023-06-01T09:22:38;14.52;;;10.25;;
9884;SDS011;4981;50.966;4.842;2023-06-01T09:25:06;13.10;;;11.07;;
9884;SDS011;4981;50.966;4.842;2023-06-01T09:27:43;14.43;;;10.40;;
9884;SDS011;4981;50.966;4.842;2023-06-01T09:30:14;14.27;;;10.85;;
9884;SDS011;4981;50.966;4.842;2023-06-01T09:32:42;17.17;;;10.57;;
9884;SDS011;4981;50.966;4.842;2023-06-01T09:35:12;10.60;;;7.85;;
9884;SDS011;4981;50.966;4.842;2023-06-01T09:37:53;11.65;;;10.45;;
9884;SDS011;4981;50.966;4.842;2023-06-01T09:40:21;9.73;;;8.10;;
9884;SDS011;4981;50.966;4.842;2023-06-01T09:42:49;14.25;;;10.70;;
9884;SDS011;4981;50.966;4.842;2023-06-01T09:45:18;14.23;;;10.65;;
9884;SDS011;4981;50.966;4.842;2023-06-01T09:47:46;17.88;;;10.80;;
9884;SDS011;4981;50.966;4.842;2023-06-01T09:52:59;8.82;;;6.07;;
9884;SDS011;4981;50.966;4.842;2023-06-01T09:55:27;13.52;;;11.40;;
9884;SDS011;4981;50.966;4.842;2023-06-01T10:00:47;15.70;;;9.88;;
9884;SDS011;4981;50.966;4.842;2023-06-01T10:03:16;5.78;;;4.60;;
9884;SDS011;4981;50.966;4.842;2023-06-01T10:05:44;15.13;;;11.23;;
9884;SDS011;4981;50.966;4.842;2023-06-01T10:08:13;4.80;;;4.20;;
9884;SDS011;4981;50.966;4.842;2023-06-01T10:10:42;13.88;;;10.65;;
9884;SDS011;4981;50.966;4.842;2023-06-01T10:13:10;15.68;;;11.32;;
9884;SDS011;4981;50.966;4.842;2023-06-01T10:15:39;15.27;;;10.85;;
9884;SDS011;4981;50.966;4.842;2023-06-01T10:18:06;15.07;;;12.15;;
9884;SDS011;4981;50.966;4.842;2023-06-01T10:20:34;13.05;;;9.70;;
9884;SDS011;4981;50.966;4.842;2023-06-01T10:23:02;14.60;;;10.82;;
9884;SDS011;4981;50.966;4.842;2023-06-01T10:25:30;16.08;;;12.15;;
9884;SDS011;4981;50.966;4.842;2023-06-01T10:28:01;13.55;;;11.25;;
9884;SDS011;4981;50.966;4.842;2023-06-01T10:30:30;8.27;;;6.05;;
9884;SDS011;4981;50.966;4.842;2023-06-01T10:32:58;17.10;;;12.25;;
9884;SDS011;4981;50.966;4.842;2023-06-01T10:38:24;14.82;;;11.23;;
9884;SDS011;4981;50.966;4.842;2023-06-01T10:43:53;8.47;;;6.53;;
9884;SDS011;4981;50.966;4.842;2023-06-01T10:49:08;16.98;;;12.25;;
9884;SDS011;4981;50.966;4.842;2023-06-01T10:51:35;20.48;;;12.88;;
9884;SDS011;4981;50.966;4.842;2023-06-01T11:02:44;21.17;;;12.07;;
9884;SDS011;4981;50.966;4.842;2023-06-01T11:05:34;14.88;;;10.95;;
9884;SDS011;4981;50.966;4.842;2023-06-01T11:08:06;17.23;;;11.77;;
9884;SDS011;4981;50.966;4.842;2023-06-01T11:10:53;18.00;;;12.70;;
9884;SDS011;4981;50.966;4.842;2023-06-01T11:13:25;6.32;;;5.55;;
9884;SDS011;4981;50.966;4.842;2023-06-01T11:18:58;15.00;;;10.35;;
9884;SDS011;4981;50.966;4.842;2023-06-01T11:21:29;16.95;;;11.70;;
9884;SDS011;4981;50.966;4.842;2023-06-01T11:24:00;16.73;;;10.98;;
9884;SDS011;4981;50.966;4.842;2023-06-01T11:26:32;8.82;;;6.50;;
9884;SDS011;4981;50.966;4.842;2023-06-01T11:29:07;16.00;;;12.35;;
9884;SDS011;4981;50.966;4.842;2023-06-01T11:31:42;18.65;;;12.77;;
9884;SDS011;4981;50.966;4.842;2023-06-01T11:34:11;17.10;;;12.52;;
9884;SDS011;4981;50.966;4.842;2023-06-01T11:36:41;6.13;;;5.10;;
9884;SDS011;4981;50.966;4.842;2023-06-01T11:39:19;8.10;;;4.82;;
9884;SDS011;4981;50.966;4.842;2023-06-01T11:41:48;6.18;;;4.07;;
9884;SDS011;4981;50.966;4.842;2023-06-01T11:44:17;14.98;;;11.35;;
9884;SDS011;4981;50.966;4.842;2023-06-01T11:46:53;19.80;;;12.23;;
9884;SDS011;4981;50.966;4.842;2023-06-01T11:49:22;15.63;;;12.80;;
9884;SDS011;4981;50.966;4.842;2023-06-01T11:51:51;16.77;;;11.75;;
9884;SDS011;4981;50.966;4.842;2023-06-01T11:54:25;12.63;;;8.77;;
9884;SDS011;4981;50.966;4.842;2023-06-01T11:56:54;10.48;;;8.23;;
9884;SDS011;4981;50.966;4.842;2023-06-01T11:59:22;14.57;;;10.63;;
9884;SDS011;4981;50.966;4.842;2023-06-01T12:01:49;19.65;;;12.15;;
9884;SDS011;4981;50.966;4.842;2023-06-01T12:04:19;6.85;;;5.72;;
9884;SDS011;4981;50.966;4.842;2023-06-01T12:06:47;14.68;;;11.25;;
9884;SDS011;4981;50.966;4.842;2023-06-01T12:09:15;16.05;;;11.43;;
9884;SDS011;4981;50.966;4.842;2023-06-01T12:11:43;5.50;;;4.38;;
9884;SDS011;4981;50.966;4.842;2023-06-01T12:14:10;14.23;;;9.70;;
9884;SDS011;4981;50.966;4.842;2023-06-01T12:16:51;16.08;;;11.13;;
9884;SDS011;4981;50.966;4.842;2023-06-01T12:19:23;8.63;;;4.60;;
9884;SDS011;4981;50.966;4.842;2023-06-01T12:21:51;15.70;;;8.85;;
9884;SDS011;4981;50.966;4.842;2023-06-01T12:24:26;15.10;;;10.15;;
9884;SDS011;4981;50.966;4.842;2023-06-01T12:26:55;10.20;;;7.88;;
9884;SDS011;4981;50.966;4.842;2023-06-01T12:32:07;10.85;;;8.82;;
9884;SDS011;4981;50.966;4.842;2023-06-01T12:34:35;16.73;;;10.23;;
9884;SDS011;4981;50.966;4.842;2023-06-01T12:37:12;5.80;;;4.05;;
9884;SDS011;4981;50.966;4.842;2023-06-01T12:39:41;15.48;;;9.82;;
9884;SDS011;4981;50.966;4.842;2023-06-01T12:42:09;13.00;;;6.68;;
9884;SDS011;4981;50.966;4.842;2023-06-01T12:44:36;13.77;;;5.97;;
9884;SDS011;4981;50.966;4.842;2023-06-01T12:47:06;12.88;;;8.50;;
9884;SDS011;4981;50.966;4.842;2023-06-01T12:49:34;15.82;;;10.40;;
9884;SDS011;4981;50.966;4.842;2023-06-01T12:52:02;11.88;;;9.57;;
9884;SDS011;4981;50.966;4.842;2023-06-01T12:54:30;12.15;;;8.02;;
9884;SDS011;4981;50.966;4.842;2023-06-01T12:56:58;7.22;;;4.55;;
9884;SDS011;4981;50.966;4.842;2023-06-01T12:59:27;13.43;;;8.07;;
9884;SDS011;4981;50.966;4.842;2023-06-01T13:01:53;15.40;;;8.82;;
9884;SDS011;4981;50.966;4.842;2023-06-01T13:04:20;15.57;;;10.07;;
9884;SDS011;4981;50.966;4.842;2023-06-01T13:06:49;19.35;;;9.98;;
9884;SDS011;4981;50.966;4.842;2023-06-01T13:09:16;13.48;;;9.32;;
9884;SDS011;4981;50.966;4.842;2023-06-01T13:11:43;6.15;;;4.57;;
9884;SDS011;4981;50.966;4.842;2023-06-01T13:14:11;14.25;;;8.75;;
9884;SDS011;4981;50.966;4.842;2023-06-01T13:16:38;11.60;;;7.45;;
9884;SDS011;4981;50.966;4.842;2023-06-01T13:19:05;8.73;;;5.90;;
9884;SDS011;4981;50.966;4.842;2023-06-01T13:21:33;13.95;;;9.15;;
9884;SDS011;4981;50.966;4.842;2023-06-01T13:24:00;10.52;;;8.18;;
9884;SDS011;4981;50.966;4.842;2023-06-01T13:26:28;9.15;;;6.95;;
9884;SDS011;4981;50.966;4.842;2023-06-01T13:28:55;7.97;;;4.13;;
9884;SDS011;4981;50.966;4.842;2023-06-01T13:31:24;8.88;;;6.03;;
9884;SDS011;4981;50.966;4.842;2023-06-01T13:33:51;13.52;;;8.52;;
9884;SDS011;4981;50.966;4.842;2023-06-01T13:36:18;5.30;;;4.50;;
9884;SDS011;4981;50.966;4.842;2023-06-01T13:38:45;6.68;;;5.22;;
9884;SDS011;4981;50.966;4.842;2023-06-01T13:41:12;7.20;;;4.35;;
9884;SDS011;4981;50.966;4.842;2023-06-01T13:43:39;15.13;;;9.02;;
9884;SDS011;4981;50.966;4.842;2023-06-01T13:46:06;22.63;;;9.32;;
9884;SDS011;4981;50.966;4.842;2023-06-01T13:48:36;13.20;;;9.18;;
9884;SDS011;4981;50.966;4.842;2023-06-01T13:51:03;14.63;;;7.70;;
9884;SDS011;4981;50.966;4.842;2023-06-01T13:53:31;10.88;;;7.30;;
9884;SDS011;4981;50.966;4.842;2023-06-01T13:55:58;12.45;;;8.30;;
9884;SDS011;4981;50.966;4.842;2023-06-01T13:58:25;10.63;;;7.60;;
9884;SDS011;4981;50.966;4.842;2023-06-01T14:00:52;12.40;;;7.97;;
9884;SDS011;4981;50.966;4.842;2023-06-01T14:03:19;14.95;;;8.68;;
9884;SDS011;4981;50.966;4.842;2023-06-01T14:05:48;14.48;;;8.07;;
9884;SDS011;4981;50.966;4.842;2023-06-01T14:08:15;14.68;;;7.68;;
9884;SDS011;4981;50.966;4.842;2023-06-01T14:10:42;8.57;;;5.90;;
9884;SDS011;4981;50.966;4.842;2023-06-01T14:13:09;11.10;;;7.05;;
9884;SDS011;4981;50.966;4.842;2023-06-01T14:15:36;8.38;;;5.03;;
9884;SDS011;4981;50.966;4.842;2023-06-01T14:18:03;11.00;;;6.88;;
9884;SDS011;4981;50.966;4.842;2023-06-01T14:20:30;11.65;;;6.90;;
9884;SDS011;4981;50.966;4.842;2023-06-01T14:22:59;9.88;;;6.38;;
9884;SDS011;4981;50.966;4.842;2023-06-01T14:25:28;10.85;;;6.63;;
9884;SDS011;4981;50.966;4.842;2023-06-01T14:27:55;9.20;;;5.85;;
9884;SDS011;4981;50.966;4.842;2023-06-01T14:30:22;6.97;;;5.40;;
9884;SDS011;4981;50.966;4.842;2023-06-01T14:32:51;5.40;;;4.07;;
9884;SDS011;4981;50.966;4.842;2023-06-01T14:35:18;9.27;;;6.43;;
9884;SDS011;4981;50.966;4.842;2023-06-01T14:37:45;7.05;;;5.35;;
9884;SDS011;4981;50.966;4.842;2023-06-01T14:40:14;8.30;;;6.22;;
9884;SDS011;4981;50.966;4.842;2023-06-01T14:42:41;10.68;;;5.90;;
9884;SDS011;4981;50.966;4.842;2023-06-01T14:45:08;11.25;;;6.28;;
9884;SDS011;4981;50.966;4.842;2023-06-01T14:47:36;8.60;;;4.13;;
9884;SDS011;4981;50.966;4.842;2023-06-01T14:50:06;4.82;;;4.18;;
9884;SDS011;4981;50.966;4.842;2023-06-01T14:52:34;6.18;;;4.05;;
9884;SDS011;4981;50.966;4.842;2023-06-01T14:55:01;8.25;;;4.55;;
9884;SDS011;4981;50.966;4.842;2023-06-01T14:57:29;10.73;;;5.30;;
9884;SDS011;4981;50.966;4.842;2023-06-01T14:59:57;10.63;;;5.68;;
9884;SDS011;4981;50.966;4.842;2023-06-01T15:02:24;6.55;;;4.18;;
9884;SDS011;4981;50.966;4.842;2023-06-01T15:04:51;4.93;;;3.67;;
9884;SDS011;4981;50.966;4.842;2023-06-01T15:07:18;4.82;;;3.95;;
9884;SDS011;4981;50.966;4.842;2023-06-01T15:09:45;10.10;;;5.22;;
9884;SDS011;4981;50.966;4.842;2023-06-01T15:12:11;5.75;;;4.63;;
9884;SDS011;4981;50.966;4.842;2023-06-01T15:14:40;8.73;;;5.18;;
9884;SDS011;4981;50.966;4.842;2023-06-01T15:17:07;7.03;;;5.38;;
9884;SDS011;4981;50.966;4.842;2023-06-01T15:19:35;10.85;;;5.25;;
9884;SDS011;4981;50.966;4.842;2023-06-01T15:22:02;9.82;;;5.22;;
9884;SDS011;4981;50.966;4.842;2023-06-01T15:24:29;11.20;;;5.70;;
9884;SDS011;4981;50.966;4.842;2023-06-01T15:26:56;10.07;;;4.28;;
9884;SDS011;4981;50.966;4.842;2023-06-01T15:29:23;8.77;;;4.93;;
9884;SDS011;4981;50.966;4.842;2023-06-01T15:31:52;12.10;;;4.93;;
9884;SDS011;4981;50.966;4.842;2023-06-01T15:34:19;9.45;;;4.80;;
9884;SDS011;4981;50.966;4.842;2023-06-01T15:36:45;6.43;;;4.40;;
9884;SDS011;4981;50.966;4.842;2023-06-01T15:39:13;8.70;;;5.15;;